createdAt,value
2022-12-13T00:01:22.196Z,11.17
2022-12-13T00:03:49.708Z,12.40
2022-12-13T00:06:17.249Z,11.93
2022-12-13T00:08:44.741Z,11.90
2022-12-13T00:11:14.087Z,14.80
2022-12-13T00:13:42.363Z,13.50
2022-12-13T00:16:13.645Z,15.03
2022-12-13T00:18:41.246Z,12.30
2022-12-13T00:21:12.677Z,13.73
2022-12-13T00:23:40.140Z,12.17
2022-12-13T00:26:08.735Z,12.70
2022-12-13T00:28:36.330Z,12.07
2022-12-13T00:31:26.883Z,12.97
2022-12-13T00:33:51.712Z,12.20
2022-12-13T00:36:20.375Z,12.53
2022-12-13T00:39:00.527Z,11.80
2022-12-13T00:41:37.406Z,12.70
2022-12-13T00:44:05.285Z,11.87
2022-12-13T00:46:33.064Z,11.03
2022-12-13T00:49:01.496Z,11.00
2022-12-13T00:51:30.024Z,12.27
2022-12-13T00:53:57.769Z,13.53
2022-12-13T00:56:26.167Z,13.87
2022-12-13T00:58:54.128Z,12.80
2022-12-13T01:01:24.644Z,13.73
2022-12-13T01:03:53.811Z,12.67
2022-12-13T01:06:24.029Z,12.17
2022-12-13T01:08:51.593Z,12.43
2022-12-13T01:11:19.131Z,12.47
2022-12-13T01:13:46.578Z,12.03
2022-12-13T01:16:14.538Z,13.57
2022-12-13T01:18:42.627Z,15.80
2022-12-13T01:21:14.890Z,11.80
2022-12-13T01:23:42.820Z,13.33
2022-12-13T01:26:12.420Z,14.30
2022-12-13T01:28:39.979Z,14.53
2022-12-13T01:31:09.475Z,13.97
2022-12-13T01:33:37.065Z,13.00
2022-12-13T01:36:05.900Z,14.30
2022-12-13T01:38:37.910Z,12.70
2022-12-13T01:41:16.654Z,12.40
2022-12-13T01:43:47.009Z,13.77
2022-12-13T01:46:15.488Z,14.13
2022-12-13T01:48:50.013Z,14.43
2022-12-13T01:51:18.769Z,14.77
2022-12-13T01:53:47.437Z,12.40
2022-12-13T01:56:20.983Z,13.83
2022-12-13T01:58:49.764Z,12.13
2022-12-13T02:01:17.975Z,13.43
2022-12-13T02:03:45.721Z,13.10
2022-12-13T02:06:15.268Z,14.10
2022-12-13T02:08:43.671Z,11.07
2022-12-13T02:11:11.885Z,12.27
2022-12-13T02:13:39.408Z,15.37
2022-12-13T02:16:06.923Z,13.07
2022-12-13T02:18:40.621Z,13.57
2022-12-13T02:21:17.442Z,12.93
2022-12-13T02:24:11.299Z,13.40
2022-12-13T02:26:41.875Z,11.03
2022-12-13T02:29:31.160Z,11.17
2022-12-13T02:32:17.523Z,14.40
2022-12-13T02:34:55.361Z,14.30
2022-12-13T02:37:28.017Z,12.53
2022-12-13T02:40:01.742Z,14.60
2022-12-13T02:42:38.586Z,12.27
2022-12-13T02:45:21.460Z,12.33
2022-12-13T02:47:50.487Z,12.83
2022-12-13T02:50:18.277Z,11.57
2022-12-13T02:52:46.800Z,11.20
2022-12-13T02:55:16.281Z,11.53
2022-12-13T02:57:45.230Z,13.00
2022-12-13T03:00:18.699Z,13.13
2022-12-13T03:02:57.182Z,12.83
2022-12-13T03:05:50.712Z,12.77
2022-12-13T03:08:26.563Z,15.40
2022-12-13T03:11:04.683Z,13.10
2022-12-13T03:13:40.635Z,11.03
2022-12-13T03:16:22.484Z,11.77
2022-12-13T03:18:52.056Z,13.93
2022-12-13T03:21:19.631Z,12.73
2022-12-13T03:23:47.962Z,13.40
2022-12-13T03:26:17.961Z,14.20
2022-12-13T03:28:45.533Z,12.30
2022-12-13T03:31:13.076Z,14.07
2022-12-13T03:33:40.972Z,11.93
2022-12-13T03:36:09.199Z,12.53
2022-12-13T03:38:37.461Z,13.93
2022-12-13T03:41:06.796Z,11.73
2022-12-13T03:43:34.500Z,12.70
2022-12-13T03:46:02.002Z,12.63
2022-12-13T03:48:29.709Z,11.63
2022-12-13T03:50:57.399Z,12.17
2022-12-13T03:53:32.362Z,13.60
2022-12-13T03:56:02.506Z,13.10
2022-12-13T03:58:35.751Z,13.93
2022-12-13T04:01:09.032Z,12.43
2022-12-13T04:03:37.988Z,12.27
2022-12-13T04:06:05.842Z,10.47
2022-12-13T04:08:33.770Z,11.97
2022-12-13T04:11:21.290Z,11.47
2022-12-13T04:13:48.817Z,13.97
2022-12-13T04:16:16.421Z,11.37
2022-12-13T04:18:44.137Z,13.23
2022-12-13T04:29:15.453Z,10.07
2022-12-13T04:31:42.946Z,11.93
2022-12-13T04:34:10.537Z,11.03
2022-12-13T04:36:38.001Z,10.70
2022-12-13T04:39:22.353Z,11.00
2022-12-13T04:41:51.027Z,11.60
2022-12-13T04:44:27.892Z,10.63
2022-12-13T04:47:00.973Z,13.40
2022-12-13T04:49:30.090Z,12.37
2022-12-13T04:52:01.283Z,13.17
2022-12-13T04:54:35.606Z,13.47
2022-12-13T04:57:04.624Z,12.47
2022-12-13T04:59:32.078Z,12.43
2022-12-13T05:01:59.600Z,16.77
2022-12-13T05:04:32.353Z,12.47
2022-12-13T05:07:00.760Z,12.23
2022-12-13T05:09:30.931Z,12.27
2022-12-13T05:12:01.635Z,12.33
2022-12-13T05:14:31.182Z,11.37
2022-12-13T05:16:58.961Z,11.93
2022-12-13T05:19:30.410Z,11.07
2022-12-13T05:22:01.693Z,10.77
2022-12-13T05:24:29.867Z,14.27
2022-12-13T05:26:58.139Z,15.23
2022-12-13T05:29:27.637Z,12.87
2022-12-13T05:31:55.172Z,14.53
2022-12-13T05:34:22.768Z,12.80
2022-12-13T05:36:50.208Z,15.63
2022-12-13T05:39:27.824Z,13.57
2022-12-13T05:42:01.908Z,12.50
2022-12-13T05:44:30.462Z,13.40
2022-12-13T05:46:57.924Z,13.30
2022-12-13T05:49:25.467Z,13.40
2022-12-13T05:51:52.938Z,13.10
2022-12-13T05:54:20.420Z,12.80
2022-12-13T05:56:47.912Z,10.97
2022-12-13T05:59:15.477Z,14.53
2022-12-13T06:01:44.021Z,12.33
2022-12-13T06:04:12.709Z,9.80
2022-12-13T06:06:50.909Z,13.53
2022-12-13T06:09:19.323Z,11.80
2022-12-13T06:11:46.828Z,13.70
2022-12-13T06:14:22.469Z,13.03
2022-12-13T06:16:51.633Z,13.00
2022-12-13T06:19:19.430Z,11.63
2022-12-13T06:21:46.942Z,11.47
2022-12-13T06:24:15.554Z,11.07
2022-12-13T06:26:45.379Z,13.73
2022-12-13T06:29:22.682Z,11.03
2022-12-13T06:32:02.543Z,12.37
2022-12-13T06:34:31.784Z,12.33
2022-12-13T06:36:59.254Z,11.50
2022-12-13T06:39:32.956Z,11.63
2022-12-13T06:42:01.660Z,11.70
2022-12-13T06:44:29.146Z,10.77
2022-12-13T06:47:11.210Z,12.03
2022-12-13T06:49:41.354Z,11.67
2022-12-13T06:52:10.308Z,13.67
2022-12-13T06:54:37.766Z,12.37
2022-12-13T06:57:05.214Z,11.23
2022-12-13T06:59:32.730Z,12.33
2022-12-13T07:02:03.480Z,11.90
2022-12-13T07:04:32.003Z,11.37
2022-12-13T07:07:01.896Z,12.23
2022-12-13T07:09:33.090Z,11.53
2022-12-13T07:12:00.742Z,10.30
2022-12-13T07:14:28.219Z,12.73
2022-12-13T07:17:03.205Z,12.17
2022-12-13T07:19:35.244Z,10.53
2022-12-13T07:22:05.994Z,12.57
2022-12-13T07:24:33.940Z,11.53
2022-12-13T07:27:01.427Z,10.97
2022-12-13T07:29:28.957Z,9.63
2022-12-13T07:32:01.668Z,11.50
2022-12-13T07:34:30.362Z,13.07
2022-12-13T07:36:57.911Z,12.80
2022-12-13T07:39:26.397Z,11.13
2022-12-13T07:41:55.623Z,12.03
2022-12-13T07:44:23.285Z,12.17
2022-12-13T07:46:50.979Z,13.37
2022-12-13T07:49:18.667Z,14.90
2022-12-13T07:51:46.288Z,13.40
2022-12-13T07:54:13.849Z,15.37
2022-12-13T07:56:41.368Z,14.60
2022-12-13T07:59:10.290Z,13.07
2022-12-13T08:01:37.832Z,13.43
2022-12-13T08:04:05.419Z,14.47
2022-12-13T08:06:36.960Z,11.27
2022-12-13T08:09:05.983Z,12.07
2022-12-13T08:11:33.694Z,15.90
2022-12-13T08:14:01.309Z,12.07
2022-12-13T08:16:30.314Z,12.77
2022-12-13T08:19:03.352Z,13.23
2022-12-13T08:21:56.862Z,13.67
2022-12-13T08:24:26.527Z,15.97
2022-12-13T08:26:55.231Z,10.90
2022-12-13T08:29:34.006Z,13.80
2022-12-13T08:32:07.622Z,15.23
2022-12-13T08:34:35.139Z,12.83
2022-12-13T08:37:04.018Z,13.27
2022-12-13T08:39:34.112Z,14.37
2022-12-13T08:42:15.200Z,13.97
2022-12-13T08:44:45.915Z,16.33
2022-12-13T08:47:22.701Z,14.63
2022-12-13T08:49:53.357Z,14.10
2022-12-13T08:52:22.218Z,13.40
2022-12-13T08:54:49.754Z,15.50
2022-12-13T08:57:17.455Z,15.90
2022-12-13T08:59:45.671Z,15.17
2022-12-13T09:02:16.680Z,16.43
2022-12-13T09:04:44.299Z,15.53
2022-12-13T09:07:11.845Z,14.53
2022-12-13T09:09:39.442Z,15.30
2022-12-13T09:12:11.140Z,13.00
2022-12-13T09:15:01.316Z,14.53
2022-12-13T09:17:37.119Z,14.90
2022-12-13T09:20:09.930Z,13.53
2022-12-13T09:23:01.883Z,13.23
2022-12-13T09:25:37.157Z,13.00
2022-12-13T09:28:09.470Z,14.10
2022-12-13T09:30:38.614Z,15.77
2022-12-13T09:33:18.285Z,16.40
2022-12-13T09:35:53.982Z,14.87
2022-12-13T09:38:21.579Z,12.37
2022-12-13T09:40:49.791Z,14.07
2022-12-13T09:43:31.842Z,13.70
2022-12-13T09:46:03.068Z,14.60
2022-12-13T09:48:34.864Z,14.77
2022-12-13T09:51:18.423Z,15.43
2022-12-13T09:53:52.289Z,11.03
2022-12-13T09:56:20.904Z,15.00
2022-12-13T09:58:51.787Z,14.97
2022-12-13T10:01:22.867Z,14.10
2022-12-13T10:03:51.495Z,13.70
2022-12-13T10:06:23.396Z,13.27
2022-12-13T10:08:57.821Z,14.17
2022-12-13T10:11:31.750Z,13.40
2022-12-13T10:14:07.012Z,12.77
2022-12-13T10:16:38.293Z,13.37
2022-12-13T10:19:28.134Z,15.47
2022-12-13T10:22:01.116Z,13.93
2022-12-13T10:24:37.294Z,15.83
2022-12-13T10:27:12.579Z,16.43
2022-12-13T10:29:58.492Z,16.23
2022-12-13T10:32:26.072Z,13.40
2022-12-13T10:34:56.222Z,13.83
2022-12-13T10:37:23.717Z,15.20
2022-12-13T10:39:51.238Z,12.33
2022-12-13T10:42:23.403Z,14.93
2022-12-13T10:45:10.573Z,14.90
2022-12-13T10:47:38.100Z,17.60
2022-12-13T10:50:05.803Z,14.13
2022-12-13T10:52:43.102Z,12.90
2022-12-13T10:55:43.761Z,14.60
2022-12-13T10:58:19.220Z,13.27
2022-12-13T11:00:47.930Z,12.73
2022-12-13T11:03:32.608Z,13.93
2022-12-13T11:06:04.666Z,14.33
2022-12-13T11:08:32.214Z,12.33
2022-12-13T11:11:00.625Z,13.07
2022-12-13T11:13:33.757Z,12.17
2022-12-13T11:16:02.300Z,12.60
2022-12-13T11:18:35.829Z,13.03
2022-12-13T11:21:04.103Z,13.70
2022-12-13T11:23:44.170Z,12.13
2022-12-13T11:26:24.256Z,12.00
2022-12-13T11:29:07.621Z,12.60
2022-12-13T11:31:49.095Z,14.33
2022-12-13T11:34:35.370Z,11.97
2022-12-13T11:37:16.622Z,11.47
2022-12-13T11:40:01.881Z,14.27
2022-12-13T11:42:35.611Z,13.57
2022-12-13T11:45:07.136Z,12.43
2022-12-13T11:47:46.292Z,14.00
2022-12-13T11:50:33.211Z,12.50
2022-12-13T11:53:06.325Z,13.73
2022-12-13T11:55:33.822Z,12.60
2022-12-13T11:58:05.695Z,14.03
2022-12-13T12:00:35.293Z,12.93
2022-12-13T12:03:07.805Z,12.23
2022-12-13T12:05:38.369Z,11.30
2022-12-13T12:08:32.359Z,12.23
2022-12-13T12:11:08.657Z,12.70
2022-12-13T12:13:51.698Z,13.87
2022-12-13T12:16:28.768Z,11.43
2022-12-13T12:19:01.239Z,12.23
2022-12-13T12:24:26.997Z,11.50
2022-12-13T12:27:14.642Z,12.40
2022-12-13T12:30:10.250Z,11.90
2022-12-13T12:32:43.895Z,11.27
2022-12-13T12:35:22.269Z,11.40
2022-12-13T12:38:07.897Z,11.30
2022-12-13T12:41:15.671Z,10.67
2022-12-13T12:43:40.811Z,12.50
2022-12-13T12:46:14.421Z,12.00
2022-12-13T12:48:55.029Z,12.90
2022-12-13T12:51:35.315Z,12.10
2022-12-13T12:54:32.715Z,12.37
2022-12-13T12:57:12.521Z,11.33
2022-12-13T12:59:40.002Z,11.17
2022-12-13T13:02:13.629Z,12.23
2022-12-13T13:04:45.017Z,12.43
2022-12-13T13:07:23.331Z,14.03
2022-12-13T13:09:55.176Z,13.23
2022-12-13T13:12:30.463Z,10.97
2022-12-13T13:14:58.820Z,12.87
2022-12-13T13:17:26.252Z,10.80
2022-12-13T13:20:07.850Z,12.70
2022-12-13T13:22:43.289Z,13.13
2022-12-13T13:25:13.264Z,11.67
2022-12-13T13:27:45.238Z,12.43
2022-12-13T13:30:23.016Z,11.73
2022-12-13T13:32:51.550Z,11.20
2022-12-13T13:35:32.062Z,11.43
2022-12-13T13:38:00.979Z,11.07
2022-12-13T13:40:31.605Z,12.23
2022-12-13T13:43:11.314Z,10.87
2022-12-13T13:45:51.038Z,12.87
2022-12-13T13:48:36.590Z,12.03
2022-12-13T13:51:04.060Z,12.87
2022-12-13T13:53:50.107Z,13.00
2022-12-13T13:56:29.515Z,11.53
2022-12-13T13:59:21.392Z,13.43
2022-12-13T14:02:07.408Z,11.70
2022-12-13T14:04:38.018Z,10.53
2022-12-13T14:07:08.681Z,12.17
2022-12-13T14:09:48.449Z,10.33
2022-12-13T14:12:34.627Z,11.37
2022-12-13T14:15:07.927Z,11.27
2022-12-13T14:17:54.192Z,12.20
2022-12-13T14:20:24.529Z,13.43
2022-12-13T14:22:52.001Z,14.23
2022-12-13T14:25:19.449Z,14.97
2022-12-13T14:27:53.681Z,13.63
2022-12-13T14:30:27.958Z,11.83
2022-12-13T14:32:56.458Z,13.13
2022-12-13T14:35:29.672Z,13.03
2022-12-13T14:37:59.019Z,11.30
2022-12-13T14:40:31.063Z,11.03
2022-12-13T14:42:58.775Z,10.33
2022-12-13T14:45:29.714Z,9.13
2022-12-13T14:47:58.570Z,9.40
2022-12-13T14:50:27.281Z,10.37
2022-12-13T14:52:55.979Z,9.27
2022-12-13T14:55:25.135Z,8.83
2022-12-13T14:57:54.220Z,8.63
2022-12-13T15:00:26.471Z,9.27
2022-12-13T15:02:55.746Z,10.97
2022-12-13T15:05:30.897Z,9.83
2022-12-13T15:07:58.839Z,9.17
2022-12-13T15:10:26.747Z,9.23
2022-12-13T15:12:55.143Z,9.23
2022-12-13T15:15:29.829Z,8.57
2022-12-13T15:18:07.689Z,9.27
2022-12-13T15:20:42.016Z,9.60
2022-12-13T15:23:23.861Z,7.37
2022-12-13T15:25:59.222Z,9.90
2022-12-13T15:28:29.467Z,9.80
2022-12-13T15:30:58.876Z,9.17
2022-12-13T15:33:34.170Z,8.00
2022-12-13T15:36:21.595Z,7.90
2022-12-13T15:39:12.363Z,9.30
2022-12-13T15:41:48.503Z,9.83
2022-12-13T15:44:20.900Z,8.43
2022-12-13T15:46:49.515Z,8.60
2022-12-13T15:49:20.027Z,8.17
2022-12-13T15:52:01.519Z,9.70
2022-12-13T15:54:29.721Z,8.20
2022-12-13T15:57:15.146Z,8.13
2022-12-13T15:59:43.677Z,9.63
2022-12-13T16:02:31.655Z,9.67
2022-12-13T16:05:09.741Z,8.77
2022-12-13T16:07:40.423Z,8.60
2022-12-13T16:10:08.906Z,8.63
2022-12-13T16:12:48.977Z,7.37
2022-12-13T16:15:20.509Z,9.13
2022-12-13T16:18:06.145Z,10.37
2022-12-13T16:20:34.221Z,9.43
2022-12-13T16:23:08.931Z,9.47
2022-12-13T16:25:37.207Z,10.50
2022-12-13T16:28:04.847Z,8.97
2022-12-13T16:30:50.958Z,9.97
2022-12-13T16:33:27.000Z,9.00
2022-12-13T16:35:55.388Z,8.90
2022-12-13T16:38:26.315Z,9.93
2022-12-13T16:40:55.217Z,10.97
2022-12-13T16:43:29.680Z,11.73
2022-12-13T16:47:15.082Z,10.47
2022-12-13T16:48:51.630Z,11.33
2022-12-13T16:51:19.203Z,12.60
2022-12-13T16:53:47.175Z,10.30
2022-12-13T16:56:16.559Z,12.63
2022-12-13T16:58:49.713Z,11.93
2022-12-13T17:01:20.056Z,10.37
2022-12-13T17:03:48.034Z,11.03
2022-12-13T17:06:16.800Z,11.37
2022-12-13T17:08:44.398Z,10.93
2022-12-13T17:11:17.788Z,10.27
2022-12-13T17:13:47.726Z,11.10
2022-12-13T17:16:15.641Z,10.03
2022-12-13T17:18:43.404Z,12.13
2022-12-13T17:21:11.243Z,11.57
2022-12-13T17:23:38.710Z,12.13
2022-12-13T17:26:10.000Z,14.10
2022-12-13T17:28:37.548Z,10.43
2022-12-13T17:31:09.352Z,11.67
2022-12-13T17:33:36.845Z,11.57
2022-12-13T17:36:05.189Z,11.03
2022-12-13T17:38:32.814Z,11.93
2022-12-13T17:41:00.889Z,14.07
2022-12-13T17:43:34.398Z,10.73
2022-12-13T17:46:02.895Z,11.43
2022-12-13T17:48:37.373Z,10.73
2022-12-13T17:51:08.572Z,11.30
2022-12-13T17:53:36.444Z,11.20
2022-12-13T17:56:06.576Z,13.07
2022-12-13T17:58:34.704Z,12.57
2022-12-13T18:01:15.634Z,13.83
2022-12-13T18:03:43.788Z,12.63
2022-12-13T18:06:11.298Z,12.17
2022-12-13T18:08:42.540Z,12.03
2022-12-13T18:14:01.085Z,12.00
2022-12-13T18:16:35.738Z,13.20
2022-12-13T18:19:06.274Z,13.13
2022-12-13T18:21:35.567Z,15.60
2022-12-13T18:24:03.156Z,15.40
2022-12-13T18:26:30.812Z,13.37
2022-12-13T18:28:58.509Z,13.63
2022-12-13T18:31:26.723Z,12.20
2022-12-13T18:33:54.867Z,15.27
2022-12-13T18:36:24.320Z,16.50
2022-12-13T18:38:52.070Z,15.40
2022-12-13T18:41:21.194Z,18.40
2022-12-13T18:43:48.912Z,15.40
2022-12-13T18:46:17.686Z,15.03
2022-12-13T18:48:46.167Z,14.20
2022-12-13T18:51:13.685Z,12.60
2022-12-13T18:53:41.225Z,14.20
2022-12-13T18:56:16.098Z,15.53
2022-12-13T18:58:46.057Z,15.67
2022-12-13T19:01:14.079Z,15.20
2022-12-13T19:03:43.887Z,14.47
2022-12-13T19:06:15.660Z,16.07
2022-12-13T19:08:43.275Z,17.03
2022-12-13T19:11:11.131Z,16.43
2022-12-13T19:13:38.712Z,14.50
2022-12-13T19:16:08.121Z,15.47
2022-12-13T19:18:36.300Z,15.33
2022-12-13T19:21:06.770Z,16.53
2022-12-13T19:23:34.448Z,17.67
2022-12-13T19:26:08.552Z,14.80
2022-12-13T19:28:36.434Z,17.10
2022-12-13T19:31:05.003Z,17.93
2022-12-13T19:33:33.027Z,14.77
2022-12-13T19:36:00.681Z,15.20
2022-12-13T19:38:28.431Z,15.83
2022-12-13T19:40:56.265Z,17.03
2022-12-13T19:43:24.198Z,14.20
2022-12-13T19:45:51.996Z,16.40
2022-12-13T19:48:19.472Z,15.53
2022-12-13T19:50:47.452Z,18.13
2022-12-13T19:53:14.988Z,15.80
2022-12-13T19:55:45.699Z,16.30
2022-12-13T19:58:15.949Z,16.53
2022-12-13T20:00:43.526Z,17.47
2022-12-13T20:03:11.099Z,17.83
2022-12-13T20:05:43.855Z,16.37
2022-12-13T20:08:13.074Z,16.47
2022-12-13T20:10:40.958Z,17.03
2022-12-13T20:13:08.481Z,16.97
2022-12-13T20:15:36.104Z,14.57
2022-12-13T20:18:03.664Z,14.27
2022-12-13T20:20:47.051Z,16.40
2022-12-13T20:23:19.205Z,16.00
2022-12-13T20:25:47.084Z,19.10
2022-12-13T20:28:16.466Z,16.50
2022-12-13T20:30:44.180Z,13.70
2022-12-13T20:33:14.549Z,16.23
2022-12-13T20:36:14.916Z,16.07
2022-12-13T20:38:30.610Z,15.97
2022-12-13T20:41:05.106Z,15.03
2022-12-13T20:43:33.419Z,16.13
2022-12-13T20:46:08.111Z,14.60
2022-12-13T20:48:42.912Z,16.77
2022-12-13T20:51:11.278Z,16.03
2022-12-13T20:53:40.581Z,17.77
2022-12-13T20:56:12.762Z,15.23
2022-12-13T20:58:41.903Z,17.90
2022-12-13T21:01:10.465Z,15.40
2022-12-13T21:03:37.926Z,14.90
2022-12-13T21:06:05.446Z,16.27
2022-12-13T21:08:51.282Z,18.23
2022-12-13T21:11:25.358Z,18.80
2022-12-13T21:14:08.268Z,17.23
2022-12-13T21:16:39.097Z,17.53
2022-12-13T21:19:07.399Z,15.83
2022-12-13T21:21:35.042Z,19.73
2022-12-13T21:24:03.623Z,17.17
2022-12-13T21:26:35.243Z,19.03
2022-12-13T21:29:04.919Z,18.30
2022-12-13T21:31:32.544Z,19.23
2022-12-13T21:34:01.147Z,16.90
2022-12-13T21:36:32.876Z,19.77
2022-12-13T21:39:06.771Z,18.20
2022-12-13T21:41:34.350Z,17.40
2022-12-13T21:44:01.861Z,17.30
2022-12-13T21:46:47.898Z,19.47
2022-12-13T21:49:17.742Z,17.93
2022-12-13T21:51:48.195Z,16.10
2022-12-13T21:54:18.092Z,16.13
2022-12-13T21:57:04.616Z,15.40
2022-12-13T21:59:32.229Z,18.50
2022-12-13T22:02:13.486Z,15.93
2022-12-13T22:05:07.367Z,16.70
2022-12-13T22:07:35.032Z,15.10
2022-12-13T22:10:02.921Z,17.40
2022-12-13T22:12:38.180Z,17.43
2022-12-13T22:15:06.980Z,16.07
2022-12-13T22:17:36.106Z,18.67
2022-12-13T22:20:08.221Z,17.77
2022-12-13T22:22:35.929Z,17.17
2022-12-13T22:25:03.817Z,17.30
2022-12-13T22:27:31.700Z,16.67
2022-12-13T22:29:59.772Z,15.03
2022-12-13T22:32:28.019Z,18.50
2022-12-13T22:34:56.082Z,17.13
2022-12-13T22:37:24.082Z,18.80
2022-12-13T22:39:51.592Z,16.40
2022-12-13T22:42:19.708Z,16.37
2022-12-13T22:44:47.749Z,18.53
2022-12-13T22:47:15.275Z,18.00
2022-12-13T22:49:42.801Z,16.73
2022-12-13T22:52:10.334Z,16.83
2022-12-13T22:54:37.840Z,20.03
2022-12-13T22:57:07.503Z,19.20
2022-12-13T22:59:35.050Z,16.17
2022-12-13T23:02:03.979Z,15.23
2022-12-13T23:04:34.340Z,17.23
2022-12-13T23:07:01.817Z,18.57
2022-12-13T23:09:29.296Z,17.50
2022-12-13T23:12:15.600Z,16.63
2022-12-13T23:14:43.121Z,19.03
2022-12-13T23:17:10.662Z,15.23
2022-12-13T23:19:52.826Z,19.73
2022-12-13T23:22:22.091Z,16.97
2022-12-13T23:24:49.938Z,15.17
2022-12-13T23:27:17.552Z,16.93
2022-12-13T23:29:45.050Z,15.70
2022-12-13T23:32:12.862Z,17.87
2022-12-13T23:34:40.331Z,17.70
2022-12-13T23:37:07.818Z,16.70
2022-12-13T23:39:35.283Z,15.60
2022-12-13T23:42:02.816Z,16.43
2022-12-13T23:44:30.270Z,20.60
2022-12-13T23:46:57.716Z,15.90
2022-12-13T23:49:25.252Z,16.77
2022-12-13T23:51:54.231Z,18.33
2022-12-13T23:54:21.713Z,17.33
2022-12-13T23:56:49.161Z,18.03
2022-12-13T23:59:16.868Z,19.40
